Terminal Aerodrome Forecast
Issued by NWS Quad Cities IA IL

Home | Current Version | Previous Version | Text Only | Print | Product List | Glossary On
Versions: 1 2 3 4 5 6 7 8 9 10 11 12 13 14 15 16 17 18 19 20 21 22 23 24 25 26 27 28
888
FTUS43 KDVN 211141
TAFMLI
TAF
KMLI 211141Z 2112/2212 09006KT P6SM SCT100
      TEMPO 2115/2117 -TSRA BKN060CB
     FM211700 12008KT P6SM BKN080
     FM211900 13009KT P6SM VCTS BKN070CB
     FM212200 16009KT P6SM BKN090=

USA.gov is the U.S. government's official web portal to all federal, state and local government web resources and services.